Time;durP1;ratioP1;P1;durP2;ratioP2;P2;SDS_P1;SDS_P2;PMS_P1;PMS_P2;Temp;Humidity;BMP_temperature;BMP_pressure;BME280_temperature;BME280_humidity;BME280_pressure;Samples;Min_cycle;Max_cycle;Signal;HPM_P1;HPM_P2
2022/11/11 00:00:44;;;;;;;6.40;3.55;;;;;;;11.28;42.48;102500.44;4905289;29;20047;-71
2022/11/11 00:03:31;;;;;;;6.63;3.67;;;;;;;11.26;42.13;102506.00;4910896;29;20098;-70
2022/11/11 00:06:18;;;;;;;7.05;3.72;;;;;;;11.24;42.64;102509.81;4899981;29;20181;-70
2022/11/11 00:09:06;;;;;;;7.78;3.65;;;;;;;11.25;42.92;102514.31;4906197;29;20103;-70
2022/11/11 00:11:52;;;;;;;7.22;4.00;;;;;;;11.21;42.56;102529.22;4901980;29;20167;-70
2022/11/11 00:14:38;;;;;;;7.43;4.40;;;;;;;11.20;42.40;102535.66;4887570;29;20157;-70
2022/11/11 00:26:35;;;;;;;5.93;3.42;;;;;;;11.13;43.04;102553.47;4888768;29;20063;-70
2022/11/11 00:29:25;;;;;;;5.72;3.50;;;;;;;11.11;42.81;102548.09;4903109;29;20059;-70
2022/11/11 00:32:25;;;;;;;6.35;3.33;;;;;;;11.10;42.90;102548.19;4909543;29;20188;-70
2022/11/11 00:41:18;;;;;;;5.28;3.70;;;;;;;11.06;43.01;102533.78;4910823;29;20453;-70
2022/11/11 00:44:06;;;;;;;8.10;4.07;;;;;;;11.06;42.80;102530.19;4905907;29;20062;-70
2022/11/11 00:53:02;;;;;;;7.47;3.90;;;;;;;10.98;42.88;102541.59;4943656;28;20062;-73
2022/11/11 00:55:48;;;;;;;6.30;4.20;;;;;;;10.96;42.81;102538.09;4941797;29;20480;-73
2022/11/11 00:58:35;;;;;;;5.60;3.67;;;;;;;10.94;42.96;102537.31;4945875;28;20066;-72
2022/11/11 01:01:22;;;;;;;5.85;3.90;;;;;;;10.91;42.77;102543.84;4946586;28;20050;-72
2022/11/11 01:04:09;;;;;;;4.97;3.72;;;;;;;10.86;43.13;102540.53;4947368;29;20067;-72
2022/11/11 01:06:55;;;;;;;6.75;4.03;;;;;;;10.84;42.69;102539.72;4941965;28;20062;-72
2022/11/11 01:09:42;;;;;;;7.32;4.10;;;;;;;10.82;42.87;102544.41;4933036;29;20058;-72
2022/11/11 01:12:29;;;;;;;6.25;3.58;;;;;;;10.80;42.88;102553.72;4946225;28;20090;-72
2022/11/11 01:15:15;;;;;;;6.18;3.78;;;;;;;10.79;42.87;102563.81;4942851;29;20059;-72
2022/11/11 01:18:03;;;;;;;7.65;3.70;;;;;;;10.79;43.16;102563.81;4942091;28;20046;-72
2022/11/11 01:20:58;;;;;;;6.22;4.10;;;;;;;10.79;43.57;102561.06;4947323;28;20206;-72
2022/11/11 01:23:47;;;;;;;6.65;3.63;;;;;;;10.76;43.01;102553.03;4948074;29;20522;-72
2022/11/11 01:26:34;;;;;;;6.63;4.15;;;;;;;10.75;43.64;102555.84;4942997;28;20175;-72
2022/11/11 01:29:20;;;;;;;7.43;4.05;;;;;;;10.75;43.60;102561.31;4948398;29;20074;-72
2022/11/11 01:32:06;;;;;;;6.45;4.05;;;;;;;10.73;43.07;102561.41;4939229;29;20198;-72
2022/11/11 01:34:54;;;;;;;5.88;3.42;;;;;;;10.75;43.75;102561.31;4946547;29;20061;-73
2022/11/11 01:37:41;;;;;;;7.30;3.95;;;;;;;10.72;43.72;102561.53;4942338;28;20062;-73
2022/11/11 01:40:27;;;;;;;7.15;3.67;;;;;;;10.72;43.27;102556.94;4947060;29;20501;-72
2022/11/11 01:43:20;;;;;;;6.25;3.53;;;;;;;10.74;43.56;102557.69;4950260;28;20066;-72
2022/11/11 01:46:17;;;;;;;;;;;;;;;10.46;44.30;102550.28;4946467;28;20366;-72
2022/11/11 01:49:21;;;;;;;7.78;3.70;;;;;;;10.70;43.94;102558.88;4941965;29;19929;-72
2022/11/11 01:52:14;;;;;;;6.43;3.40;;;;;;;10.71;44.09;102568.88;4939992;28;20051;-72
2022/11/11 01:55:05;;;;;;;6.75;3.65;;;;;;;10.69;43.96;102559.84;4948041;29;20107;-73
2022/11/11 01:57:55;;;;;;;5.95;3.50;;;;;;;10.70;43.85;102558.88;4943718;28;20047;-72
2022/11/11 02:00:42;;;;;;;6.07;3.70;;;;;;;10.69;43.49;102568.06;4938481;29;20058;-72
2022/11/11 02:03:31;;;;;;;5.25;3.80;;;;;;;10.70;43.86;102566.22;4941685;28;20066;-73
2022/11/11 02:06:17;;;;;;;6.40;4.00;;;;;;;10.68;43.82;102559.94;4943118;28;20054;-72
2022/11/11 02:09:07;;;;;;;6.60;3.70;;;;;;;10.70;43.60;102563.47;4946245;29;20054;-72
2022/11/11 02:15:01;;;;;;;7.15;3.85;;;;;;;10.66;43.75;102568.25;4943399;29;20054;-72
2022/11/11 02:17:49;;;;;;;6.97;3.55;;;;;;;10.65;43.51;102566.47;4936269;29;20042;-71
2022/11/11 02:20:38;;;;;;;6.35;3.88;;;;;;;10.66;43.49;102561.88;4940869;29;20057;-70
2022/11/11 02:23:31;;;;;;;8.60;4.25;;;;;;;10.64;43.79;102562.00;4932900;29;20051;-70
2022/11/11 02:26:19;;;;;;;8.23;4.13;;;;;;;10.60;44.08;102557.69;4934097;29;20047;-70
2022/11/11 02:29:11;;;;;;;6.43;3.50;;;;;;;10.61;43.98;102556.72;4952505;29;20078;-70
2022/11/11 02:31:58;;;;;;;5.90;3.85;;;;;;;10.58;43.68;102551.41;4935470;29;20102;-71
2022/11/11 02:34:44;;;;;;;6.68;4.18;;;;;;;10.57;43.62;102557.84;4933964;29;20079;-70
2022/11/11 02:37:31;;;;;;;6.75;4.28;;;;;;;10.55;44.01;102552.50;4945738;28;20058;-71
2022/11/11 02:40:20;;;;;;;6.60;4.07;;;;;;;10.54;44.01;102547.09;4933443;29;20055;-70
2022/11/11 02:43:08;;;;;;;6.30;3.70;;;;;;;10.54;43.71;102549.84;4934029;29;20187;-70
2022/11/11 02:45:55;;;;;;;6.82;4.00;;;;;;;10.51;44.01;102558.19;4948746;29;20081;-71
2022/11/11 02:48:42;;;;;;;5.95;4.05;;;;;;;10.50;44.25;102549.09;4939754;29;20078;-71
2022/11/11 02:51:29;;;;;;;6.30;4.18;;;;;;;10.50;44.12;102554.56;4934311;29;20059;-71
2022/11/11 02:54:15;;;;;;;7.00;4.05;;;;;;;10.49;44.26;102547.34;4941095;29;20055;-70
2022/11/11 02:57:07;;;;;;;5.40;3.35;;;;;;;10.49;44.29;102543.72;4932519;28;20528;-71
2022/11/11 02:59:58;;;;;;;6.17;3.67;;;;;;;10.47;44.22;102549.31;4940662;29;20050;-71
2022/11/11 03:02:44;;;;;;;6.72;4.38;;;;;;;10.46;44.20;102554.88;4931917;29;20057;-71
2022/11/11 03:05:31;;;;;;;5.88;3.58;;;;;;;10.46;44.20;102561.22;4946139;29;20739;-70
2022/11/11 03:08:18;;;;;;;5.50;3.65;;;;;;;10.46;43.88;102553.00;4935709;28;20061;-70
2022/11/11 03:11:04;;;;;;;6.80;3.45;;;;;;;10.44;44.16;102554.97;4948806;28;20058;-71
2022/11/11 03:13:51;;;;;;;6.68;3.58;;;;;;;10.43;44.21;102547.72;4932441;29;20103;-71
2022/11/11 03:19:43;;;;;;;5.97;3.47;;;;;;;10.39;44.01;102548.88;4943420;29;20059;-71
2022/11/11 03:22:28;;;;;;;6.25;3.70;;;;;;;10.39;43.73;102557.09;4949887;28;20226;-71
2022/11/11 03:25:39;;;;;;;6.90;3.88;;;;;;;10.39;44.39;102561.69;4933055;29;20066;-70
2022/11/11 03:28:25;;;;;;;6.68;3.55;;;;;;;10.37;44.19;102559.03;4950617;28;20129;-71
2022/11/11 03:31:12;;;;;;;6.30;3.67;;;;;;;10.35;44.02;102560.09;4935264;29;20412;-70
2022/11/11 03:34:16;;;;;;;6.90;3.80;;;;;;;10.35;44.22;102558.25;4941151;29;20171;-69
2022/11/11 03:40:10;;;;;;;5.07;3.30;;;;;;;10.30;43.85;102559.50;4942680;29;20522;-71
2022/11/11 03:42:56;;;;;;;6.35;3.90;;;;;;;10.29;44.31;102546.78;4948261;28;20050;-71
2022/11/11 03:45:50;;;;;;;;;;;;;;;10.03;44.93;102551.06;4940985;29;20138;-71
2022/11/11 03:48:36;;;;;;;5.25;2.92;;;;;;;10.23;43.95;102543.44;4932251;28;19946;-70
2022/11/11 03:51:24;;;;;;;6.20;3.60;;;;;;;10.28;44.28;102539.53;4931242;29;20050;-69
2022/11/11 03:54:10;;;;;;;5.97;3.70;;;;;;;10.24;44.33;102539.72;4932769;29;20054;-71
2022/11/11 03:57:29;;;;;;;7.60;4.38;;;;;;;10.24;44.22;102545.19;4937318;28;20126;-71
2022/11/11 04:00:04;;;;;;;5.70;3.60;;;;;;;10.22;43.94;102541.69;4946361;29;20522;-69
2022/11/11 04:12:20;;;;;;;5.28;3.35;;;;;;;10.15;44.23;102550.34;4951056;28;20062;-70
2022/11/11 04:18:12;;;;;;;6.90;3.70;;;;;;;10.09;44.41;102551.56;4931144;29;20567;-69
2022/11/11 04:24:02;;;;;;;5.97;3.58;;;;;;;10.05;44.57;102562.81;4948409;29;20061;-70
2022/11/11 04:26:49;;;;;;;5.85;3.92;;;;;;;10.07;44.64;102563.59;4940019;29;20428;-70
2022/11/11 04:29:36;;;;;;;5.15;3.40;;;;;;;10.04;44.50;102561.03;4932527;29;20059;-70
2022/11/11 04:32:37;;;;;;;6.30;3.50;;;;;;;10.04;44.21;102561.03;4949320;28;20062;-70
2022/11/11 04:35:25;;;;;;;5.78;3.60;;;;;;;10.01;44.55;102563.94;4951865;29;20046;-69
2022/11/11 04:41:15;;;;;;;;;;;;;;;9.75;45.33;102560.84;4935570;29;20512;-69
2022/11/11 04:47:07;;;;;;;5.13;3.20;;;;;;;9.96;44.57;102557.88;4930963;28;20054;-68
2022/11/11 04:49:53;;;;;;;6.65;3.50;;;;;;;9.96;44.51;102561.47;4939708;29;20566;-70
2022/11/11 04:52:40;;;;;;;6.10;3.28;;;;;;;9.97;44.88;102557.78;4950158;28;20050;-71
2022/11/11 04:58:31;;;;;;;6.00;3.38;;;;;;;9.97;44.57;102559.63;4930881;29;20054;-70
2022/11/11 05:04:19;;;;;;;5.47;3.17;;;;;;;9.96;44.83;102560.59;4945415;29;20115;-69
2022/11/11 05:10:10;;;;;;;5.40;3.15;;;;;;;9.96;44.92;102561.47;4950224;29;20058;-71
2022/11/11 05:21:19;;;;;;;5.15;3.25;;;;;;;9.97;44.42;102548.69;4949192;28;20167;-70
2022/11/11 05:22:23;;;;;;;5.32;3.10;;;;;;;9.99;45.00;102557.69;4930254;29;20050;-72
2022/11/11 05:25:24;;;;;;;6.60;3.55;;;;;;;9.97;44.69;102554.16;4942116;29;20058;-72
2022/11/11 05:28:10;;;;;;;5.25;3.08;;;;;;;9.94;44.33;102555.22;4948924;28;20047;-71
2022/11/11 05:30:57;;;;;;;5.63;2.88;;;;;;;9.94;44.61;102557.94;4938145;28;20054;-71
2022/11/11 05:33:44;;;;;;;5.53;3.08;;;;;;;9.94;44.83;102563.41;4932249;29;20436;-71
2022/11/11 05:36:36;;;;;;;6.00;3.88;;;;;;;9.94;44.58;102568.88;4935157;28;20055;-72
2022/11/11 05:39:23;;;;;;;;;;;;;;;9.65;45.51;102572.41;4939143;29;20154;-71
2022/11/11 05:42:11;;;;;;;5.32;3.08;;;;;;;9.84;44.80;102579.47;4944119;28;19989;-72
2022/11/11 05:44:57;;;;;;;5.43;3.10;;;;;;;9.85;44.69;102589.44;4949517;29;20704;-71
2022/11/11 05:47:43;;;;;;;5.20;3.10;;;;;;;9.83;44.86;102588.63;4933813;28;20218;-71
2022/11/11 05:50:30;;;;;;;5.97;3.20;;;;;;;9.82;44.96;102591.50;4931407;29;20063;-71
2022/11/11 05:53:22;;;;;;;5.95;3.22;;;;;;;9.82;44.66;102580.56;4940608;28;20057;-71
2022/11/11 05:56:10;;;;;;;5.72;3.20;;;;;;;9.78;45.20;102588.03;4930922;28;20087;-70
2022/11/11 05:58:56;;;;;;;6.30;3.80;;;;;;;9.78;44.76;102596.25;4933172;29;20138;-72
2022/11/11 06:01:43;;;;;;;5.43;3.22;;;;;;;9.76;44.95;102589.97;4948140;28;20054;-71
2022/11/11 06:04:30;;;;;;;5.88;3.47;;;;;;;9.76;44.76;102591.81;4950820;29;20058;-70
2022/11/11 06:07:16;;;;;;;5.75;3.40;;;;;;;9.75;44.63;102590.94;4942317;28;20245;-72
2022/11/11 06:13:12;;;;;;;5.50;3.20;;;;;;;9.74;45.13;102601.97;4940189;28;20058;-71
2022/11/11 06:15:58;;;;;;;5.97;3.33;;;;;;;9.74;44.88;102605.56;4949357;28;20118;-70
2022/11/11 06:18:45;;;;;;;6.03;3.42;;;;;;;9.74;45.20;102604.72;4947076;29;20187;-71
2022/11/11 06:21:55;;;;;;;5.65;3.30;;;;;;;9.74;44.88;102602.84;4940471;29;20557;-71
2022/11/11 06:24:38;;;;;;;6.47;3.65;;;;;;;9.74;45.37;102611.03;4935437;29;20142;-70
2022/11/11 06:27:25;;;;;;;4.60;2.97;;;;;;;9.77;45.25;102610.88;4946290;28;20122;-71
2022/11/11 06:30:12;;;;;;;5.63;3.25;;;;;;;9.77;45.01;102610.00;4954359;29;20732;-71
2022/11/11 06:33:20;;;;;;;6.53;3.58;;;;;;;9.75;45.29;102615.53;4942237;29;20050;-70
2022/11/11 06:36:07;;;;;;;6.38;3.85;;;;;;;9.79;45.13;102619.00;4943114;29;20051;-70
2022/11/11 06:38:53;;;;;;;7.30;3.70;;;;;;;9.77;44.97;102613.59;4944330;29;20062;-69
2022/11/11 06:41:40;;;;;;;6.35;3.75;;;;;;;9.79;45.35;102616.25;4945528;28;20559;-70
2022/11/11 06:44:29;;;;;;;6.07;3.72;;;;;;;9.80;45.15;102620.75;4939664;29;20409;-68
2022/11/11 06:47:15;;;;;;;5.78;3.70;;;;;;;9.79;45.35;102624.47;4936958;23;20516;-71
2022/11/11 06:50:01;;;;;;;6.70;3.83;;;;;;;9.79;45.20;102619.88;4902515;29;20107;-71
2022/11/11 06:52:47;;;;;;;6.07;3.50;;;;;;;9.79;45.40;102625.34;4909252;29;20059;-71
2022/11/11 06:55:34;;;;;;;5.43;3.30;;;;;;;9.79;45.22;102638.13;4906824;29;20111;-71
2022/11/11 06:58:21;;;;;;;5.95;3.97;;;;;;;9.77;45.21;102640.06;4906064;29;20449;-72
2022/11/11 07:01:09;;;;;;;7.80;3.60;;;;;;;9.77;44.82;102640.94;4906712;29;20143;-72
2022/11/11 07:03:56;;;;;;;7.68;3.85;;;;;;;9.75;45.17;102650.19;4903596;29;20054;-71
2022/11/11 07:06:42;;;;;;;6.10;3.80;;;;;;;9.74;45.34;102656.66;4911786;29;20050;-71
2022/11/11 07:09:29;;;;;;;8.63;3.90;;;;;;;9.71;45.09;102654.97;4901588;29;20064;-71
2022/11/11 07:12:15;;;;;;;6.55;3.50;;;;;;;9.72;45.04;102666.78;4904518;29;20047;-71
2022/11/11 07:15:01;;;;;;;6.13;3.80;;;;;;;9.69;44.96;102665.09;4901967;29;20059;-73
2022/11/11 07:17:49;;;;;;;8.65;4.10;;;;;;;9.70;45.02;102666.00;4896933;29;20078;-73
2022/11/11 07:20:36;;;;;;;7.15;3.83;;;;;;;9.68;45.50;102667.91;4898941;29;20047;-72
2022/11/11 07:23:22;;;;;;;6.30;4.00;;;;;;;9.67;45.52;102663.41;4906952;29;20051;-72
2022/11/11 07:26:08;;;;;;;7.10;3.75;;;;;;;9.66;45.17;102658.94;4896080;29;20055;-73
2022/11/11 07:28:55;;;;;;;6.57;4.30;;;;;;;9.66;45.51;102668.00;4906475;29;20160;-72
2022/11/11 07:31:41;;;;;;;6.30;3.97;;;;;;;9.65;45.43;102659.91;4904312;29;20054;-70
2022/11/11 07:34:29;;;;;;;6.03;3.97;;;;;;;9.66;45.40;102672.59;4918317;29;20055;-70
2022/11/11 07:37:15;;;;;;;10.23;4.22;;;;;;;9.64;45.44;102672.69;4903382;29;20099;-71
2022/11/11 07:40:02;;;;;;;7.22;3.60;;;;;;;9.65;45.30;102673.56;4910327;29;20585;-70
2022/11/11 07:42:48;;;;;;;6.85;3.55;;;;;;;9.66;45.69;102675.34;4908054;29;20050;-69
2022/11/11 07:45:34;;;;;;;5.95;4.10;;;;;;;9.65;45.62;102673.56;4904889;29;20064;-72
2022/11/11 07:48:20;;;;;;;6.13;3.97;;;;;;;9.67;45.38;102686.16;4904444;29;20056;-71
2022/11/11 07:51:08;;;;;;;7.30;3.83;;;;;;;9.71;45.49;102684.16;4895944;29;20410;-71
2022/11/11 07:53:55;;;;;;;7.50;3.85;;;;;;;9.72;45.63;102691.41;4894755;29;20059;-71
2022/11/11 07:56:42;;;;;;;7.70;3.90;;;;;;;9.72;45.75;102692.28;4892710;29;20165;-71
2022/11/11 07:59:28;;;;;;;6.03;3.70;;;;;;;9.75;45.84;102691.22;4906643;29;20074;-71
2022/11/11 08:02:15;;;;;;;5.38;3.42;;;;;;;9.79;45.64;102690.09;4896848;29;20422;-72
2022/11/11 08:05:01;;;;;;;5.50;3.83;;;;;;;9.81;46.03;102701.84;4907228;29;20524;-72
2022/11/11 08:07:49;;;;;;;7.63;3.75;;;;;;;9.84;45.97;102694.31;4895794;29;20075;-72
2022/11/11 08:10:36;;;;;;;6.97;4.00;;;;;;;9.87;45.63;102701.47;4895640;29;20048;-72
2022/11/11 08:13:39;;;;;;;5.65;3.65;;;;;;;9.90;45.80;102703.19;4893474;29;20056;-72
2022/11/11 08:16:26;;;;;;;9.38;4.15;;;;;;;9.89;46.03;102695.94;4897671;29;20059;-72
2022/11/11 08:19:13;;;;;;;7.35;4.20;;;;;;;9.95;45.90;102695.59;4908250;29;20059;-71
2022/11/11 08:21:59;;;;;;;7.55;4.10;;;;;;;9.98;45.91;102700.91;4898812;29;20120;-71
2022/11/11 08:24:48;;;;;;;5.55;3.85;;;;;;;10.02;45.64;102697.88;4894020;29;20060;-72
2022/11/11 08:27:56;;;;;;;7.53;3.50;;;;;;;10.07;45.96;102693.03;4900863;29;20512;-72
2022/11/11 08:30:43;;;;;;;5.38;3.70;;;;;;;10.08;46.02;102696.66;4907405;29;20104;-72
2022/11/11 08:33:29;;;;;;;6.60;3.95;;;;;;;10.13;46.10;102689.09;4899907;29;20055;-71
2022/11/11 08:36:22;;;;;;;5.43;3.47;;;;;;;10.16;46.05;102688.88;4893613;29;20173;-72
2022/11/11 08:39:09;;;;;;;7.70;3.55;;;;;;;10.19;45.65;102692.34;4900358;29;20166;-71
2022/11/11 08:41:56;;;;;;;7.00;3.92;;;;;;;10.25;46.11;102696.56;4905661;29;20063;-71
2022/11/11 08:44:43;;;;;;;5.82;3.70;;;;;;;10.29;45.93;102700.91;4904645;29;20584;-69
2022/11/11 08:47:29;;;;;;;6.32;3.80;;;;;;;10.34;45.90;102712.47;4896173;29;20108;-70
2022/11/11 08:50:16;;;;;;;6.03;3.85;;;;;;;10.39;45.96;102702.16;4902722;29;20051;-69
2022/11/11 08:53:02;;;;;;;7.75;3.90;;;;;;;10.45;45.92;102693.59;4907437;29;20067;-69
2022/11/11 08:55:49;;;;;;;6.55;3.67;;;;;;;10.50;46.23;102694.19;4898143;29;20072;-69
2022/11/11 08:58:37;;;;;;;6.72;3.60;;;;;;;10.60;45.88;102705.53;4898317;29;20059;-69
2022/11/11 09:01:24;;;;;;;7.43;3.97;;;;;;;10.64;45.78;102706.25;4901027;29;20131;-69
2022/11/11 09:04:10;;;;;;;6.00;3.58;;;;;;;10.70;46.01;102704.03;4902804;29;20059;-69
2022/11/11 09:07:17;;;;;;;7.38;4.07;;;;;;;10.76;46.21;102703.66;4889864;29;20048;-69
2022/11/11 09:10:04;;;;;;;6.90;3.78;;;;;;;10.85;45.92;102702.22;4893541;29;20063;-69
2022/11/11 09:12:56;;;;;;;6.03;3.95;;;;;;;10.93;45.81;102698.06;4895744;29;20552;-70
2022/11/11 09:15:43;;;;;;;5.15;3.40;;;;;;;10.99;46.00;102705.88;4901574;29;20183;-69
2022/11/11 09:18:31;;;;;;;5.90;3.35;;;;;;;11.05;45.60;102720.22;4905232;29;20122;-69
2022/11/11 09:21:18;;;;;;;5.47;3.65;;;;;;;11.13;45.53;102706.94;4907015;29;20067;-69
2022/11/11 09:24:05;;;;;;;5.10;3.42;;;;;;;11.19;45.25;102721.13;4909013;29;20143;-69
2022/11/11 09:26:52;;;;;;;5.70;3.45;;;;;;;11.26;45.71;102710.69;4900104;29;20158;-70
2022/11/11 09:29:39;;;;;;;6.38;3.20;;;;;;;11.31;45.19;102706.66;4899901;29;20532;-69
2022/11/11 09:32:27;;;;;;;5.97;3.45;;;;;;;11.39;45.29;102716.31;4898963;29;20055;-69
2022/11/11 09:35:14;;;;;;;6.72;3.50;;;;;;;11.42;45.08;102703.28;4901371;29;20187;-69
2022/11/11 09:38:01;;;;;;;5.53;3.15;;;;;;;11.49;45.31;102709.25;4898502;29;20528;-69
2022/11/11 09:41:00;;;;;;;5.50;3.47;;;;;;;11.56;44.87;102711.50;4899508;29;20059;-70
2022/11/11 09:43:53;;;;;;;5.32;3.50;;;;;;;11.59;44.46;102711.34;4903265;29;20068;-69
2022/11/11 09:46:47;;;;;;;6.93;3.47;;;;;;;11.62;44.16;102711.19;4905766;29;20059;-72
2022/11/11 09:49:56;;;;;;;6.30;3.42;;;;;;;11.65;44.55;102718.31;4899361;29;20608;-70
2022/11/11 09:52:47;;;;;;;5.97;3.58;;;;;;;11.68;44.67;102716.28;4907214;29;20513;-71
2022/11/11 09:55:40;;;;;;;6.45;3.28;;;;;;;11.71;44.37;102717.94;4904033;29;20059;-71
2022/11/11 09:58:32;;;;;;;5.75;3.38;;;;;;;11.71;44.52;102723.44;4904788;29;20071;-71
2022/11/11 10:01:23;;;;;;;6.55;3.60;;;;;;;11.75;44.67;102711.28;4905810;29;20047;-71
2022/11/11 10:04:22;;;;;;;5.90;3.30;;;;;;;11.80;43.91;102716.50;4897775;29;20409;-70
2022/11/11 10:07:18;;;;;;;6.30;3.38;;;;;;;11.83;44.51;102727.25;4900496;29;20155;-69
2022/11/11 10:10:15;;;;;;;5.18;3.22;;;;;;;11.86;44.48;102722.47;4902289;29;20055;-70
2022/11/11 10:13:03;;;;;;;5.07;2.97;;;;;;;11.89;44.33;102725.00;4903865;29;20059;-70
2022/11/11 10:15:58;;;;;;;5.07;3.15;;;;;;;11.94;43.84;102721.97;4905323;29;20115;-69
2022/11/11 10:18:58;;;;;;;6.30;3.30;;;;;;;11.98;44.17;102720.78;4903664;29;20076;-70
2022/11/11 10:21:49;;;;;;;7.25;3.25;;;;;;;11.99;44.42;102731.66;4908702;29;20191;-70
2022/11/11 10:25:07;;;;;;;5.93;3.10;;;;;;;12.04;44.14;102724.03;4908490;29;20063;-70
2022/11/11 10:27:58;;;;;;;6.95;3.47;;;;;;;12.06;44.49;102716.56;4903399;29;20055;-70
2022/11/11 10:30:47;;;;;;;6.38;2.83;;;;;;;12.09;43.94;102719.13;4900864;29;20063;-69
2022/11/11 10:33:42;;;;;;;6.13;3.15;;;;;;;12.14;43.71;102727.03;4904435;29;20623;-69
2022/11/11 10:36:31;;;;;;;5.13;2.80;;;;;;;12.16;44.01;102719.59;4898862;29;20528;-69
2022/11/11 10:39:27;;;;;;;7.05;3.10;;;;;;;12.21;44.17;102716.56;4898433;29;20176;-69
2022/11/11 10:42:17;;;;;;;4.97;3.25;;;;;;;12.25;44.13;102715.38;4903320;29;20569;-69
2022/11/11 10:45:14;;;;;;;10.60;3.33;;;;;;;12.29;43.54;102723.31;4909999;29;20092;-69
2022/11/11 10:48:03;;;;;;;5.75;2.90;;;;;;;12.31;43.99;102720.44;4904687;29;20050;-69
2022/11/11 10:50:53;;;;;;;4.25;2.55;;;;;;;12.35;43.64;102727.53;4905405;29;20541;-70
2022/11/11 10:53:47;;;;;;;5.22;2.80;;;;;;;12.36;43.73;102727.44;4901118;29;20092;-70
2022/11/11 10:56:38;;;;;;;5.80;2.80;;;;;;;12.39;43.39;102727.22;4905649;29;20453;-69
2022/11/11 10:59:32;;;;;;;5.38;2.90;;;;;;;12.42;43.57;102721.53;4905718;29;20058;-69
2022/11/11 11:02:22;;;;;;;5.03;3.15;;;;;;;12.43;43.10;102725.16;4907534;29;20135;-69
2022/11/11 11:05:13;;;;;;;5.55;3.50;;;;;;;12.43;42.91;102714.16;4904202;29;20059;-69
2022/11/11 11:08:07;;;;;;;4.88;3.00;;;;;;;12.45;43.08;102728.69;4896765;29;20188;-69
2022/11/11 11:10:57;;;;;;;6.03;3.05;;;;;;;12.44;43.06;102729.66;4909080;29;20055;-70
2022/11/11 11:13:48;;;;;;;5.35;3.38;;;;;;;12.44;43.10;102725.06;4909253;29;20156;-69
2022/11/11 11:16:43;;;;;;;4.30;2.50;;;;;;;12.47;43.37;102730.31;4901719;29;20120;-69
2022/11/11 11:19:30;;;;;;;5.40;2.85;;;;;;;12.48;43.49;102725.72;4898637;29;20122;-70
2022/11/11 11:22:16;;;;;;;6.05;2.70;;;;;;;12.50;43.65;102721.91;4903122;29;20175;-69
2022/11/11 11:25:10;;;;;;;5.13;3.15;;;;;;;12.58;43.28;102728.75;4903833;29;20054;-69
2022/11/11 11:28:07;;;;;;;4.15;2.65;;;;;;;12.61;43.21;102723.94;4909623;29;20634;-69
2022/11/11 11:30:59;;;;;;;5.97;3.00;;;;;;;12.65;42.93;102722.78;4902576;29;20051;-69
2022/11/11 11:33:56;;;;;;;4.60;3.00;;;;;;;12.67;43.37;102731.78;4901675;29;20047;-69
2022/11/11 11:36:42;;;;;;;4.82;2.63;;;;;;;12.70;43.28;102728.84;4898948;29;20055;-70
2022/11/11 11:39:33;;;;;;;5.65;2.78;;;;;;;12.75;43.01;102723.91;4906357;29;20054;-70
2022/11/11 11:42:31;;;;;;;5.28;2.67;;;;;;;12.81;42.91;102715.25;4899889;29;20047;-69
2022/11/11 11:45:23;;;;;;;4.90;2.88;;;;;;;12.85;43.18;102722.31;4901274;29;20135;-69
2022/11/11 11:48:25;;;;;;;4.65;2.45;;;;;;;12.88;42.80;102718.47;4904035;29;20194;-69
2022/11/11 11:51:28;;;;;;;4.78;2.47;;;;;;;12.92;42.73;102714.53;4902850;29;20706;-69
2022/11/11 11:54:31;;;;;;;5.72;2.38;;;;;;;12.98;42.54;102715.97;4901475;29;20047;-69
2022/11/11 11:57:28;;;;;;;4.43;2.25;;;;;;;13.02;42.45;102699.19;4906640;29;20115;-69
2022/11/11 12:00:18;;;;;;;3.78;2.10;;;;;;;13.05;42.93;102700.81;4903609;29;20538;-71
2022/11/11 12:03:28;;;;;;;3.88;2.10;;;;;;;13.10;42.30;102698.66;4908048;29;20051;-71
2022/11/11 12:06:23;;;;;;;4.75;2.45;;;;;;;13.13;42.48;102701.16;4898592;29;20169;-71
2022/11/11 12:09:23;;;;;;;4.45;2.20;;;;;;;13.18;42.07;102690.75;4903913;29;20056;-71
2022/11/11 12:12:20;;;;;;;5.43;2.55;;;;;;;13.21;42.77;102694.16;4905649;29;20055;-71
2022/11/11 12:15:19;;;;;;;3.78;1.85;;;;;;;13.25;42.08;102686.56;4906764;29;20054;-71
2022/11/11 12:18:31;;;;;;;4.18;2.05;;;;;;;13.29;42.00;102692.72;4902932;29;20802;-69
2022/11/11 12:21:23;;;;;;;3.80;2.08;;;;;;;13.30;42.78;102686.25;4907093;29;20648;-69
2022/11/11 12:24:25;;;;;;;4.25;2.40;;;;;;;13.38;42.39;102679.22;4901543;29;20051;-69
2022/11/11 12:27:20;;;;;;;5.05;2.10;;;;;;;13.42;42.21;102682.63;4905266;29;20426;-69
2022/11/11 12:30:11;;;;;;;3.70;1.83;;;;;;;13.46;42.47;102674.03;4904241;29;20499;-69
2022/11/11 12:33:42;;;;;;;3.80;2.35;;;;;;;13.52;42.29;102672.75;4904705;29;20056;-69
2022/11/11 12:36:36;;;;;;;3.45;1.88;;;;;;;13.57;42.00;102663.19;4883876;29;20059;-69
2022/11/11 12:39:40;;;;;;;4.18;2.00;;;;;;;13.64;42.33;102658.13;4901823;29;20058;-70
2022/11/11 12:42:45;;;;;;;3.55;1.92;;;;;;;13.67;41.74;102668.94;4896273;29;20048;-69
2022/11/11 12:45:38;;;;;;;4.18;1.85;;;;;;;13.72;41.60;102660.31;4903974;29;20543;-69
2022/11/11 12:48:48;;;;;;;3.53;2.03;;;;;;;13.73;41.47;102653.84;4904515;29;20060;-69
2022/11/11 12:51:53;;;;;;;4.97;2.20;;;;;;;13.79;41.88;102653.38;4901446;29;20055;-69
2022/11/11 12:54:55;;;;;;;3.10;1.90;;;;;;;13.80;41.25;102647.75;4910841;29;20062;-69
2022/11/11 12:57:59;;;;;;;4.45;1.92;;;;;;;13.84;41.50;102652.06;4904669;29;20516;-70
2022/11/11 13:00:56;;;;;;;3.42;1.85;;;;;;;13.84;41.05;102652.06;4904469;29;20055;-69
2022/11/11 13:04:04;;;;;;;2.60;1.52;;;;;;;13.87;41.58;102642.69;4895596;29;20052;-70
2022/11/11 13:07:06;;;;;;;3.85;1.90;;;;;;;13.88;41.16;102641.69;4899209;29;20184;-69
2022/11/11 13:10:08;;;;;;;3.85;1.70;;;;;;;13.89;41.09;102640.72;4908819;29;20058;-69
2022/11/11 13:13:01;;;;;;;3.53;1.77;;;;;;;13.86;41.35;102641.81;4900417;29;20048;-69
2022/11/11 13:15:48;;;;;;;3.08;1.70;;;;;;;13.86;41.65;102635.44;4906569;29;20052;-69
2022/11/11 13:18:45;;;;;;;4.80;2.20;;;;;;;13.89;40.78;102637.97;4904694;29;20076;-69
2022/11/11 13:21:42;;;;;;;4.45;2.35;;;;;;;13.88;41.37;102634.31;4900923;29;20153;-69
2022/11/11 13:24:31;;;;;;;3.30;1.75;;;;;;;13.86;41.29;102638.19;4900633;29;20124;-70
2022/11/11 13:27:32;;;;;;;3.13;1.63;;;;;;;13.87;41.33;102642.69;4901579;29;20063;-69
2022/11/11 13:30:57;;;;;;;3.20;1.73;;;;;;;13.79;41.01;102639.63;4903130;29;20059;-70
2022/11/11 13:33:48;;;;;;;2.70;1.75;;;;;;;13.83;41.56;102639.31;4899066;29;20647;-70
2022/11/11 13:36:42;;;;;;;3.00;1.63;;;;;;;13.85;40.81;102636.44;4899627;29;20168;-69
2022/11/11 13:39:32;;;;;;;2.75;1.50;;;;;;;13.85;41.06;102644.69;4903307;29;20514;-69
2022/11/11 13:42:24;;;;;;;2.78;1.30;;;;;;;13.84;41.18;102635.56;4904113;29;20054;-70
2022/11/11 13:45:26;;;;;;;2.33;1.40;;;;;;;13.82;40.61;102636.66;4895908;29;20536;-70
2022/11/11 13:48:27;;;;;;;2.30;1.40;;;;;;;13.81;40.88;102634.88;4901824;29;20542;-71
2022/11/11 13:51:24;;;;;;;4.45;1.90;;;;;;;13.79;40.83;102635.00;4902082;29;20071;-70
2022/11/11 13:54:24;;;;;;;2.30;1.30;;;;;;;13.78;40.46;102633.22;4900663;29;20047;-71
2022/11/11 13:57:21;;;;;;;4.00;1.60;;;;;;;13.75;40.04;102625.22;4897299;29;20059;-74
2022/11/11 14:00:26;;;;;;;5.10;1.83;;;;;;;13.74;40.17;102628.09;4904079;29;20117;-72
2022/11/11 14:03:36;;;;;;;2.83;1.40;;;;;;;13.74;40.60;102631.72;4901818;29;20059;-74
2022/11/11 14:06:56;;;;;;;2.55;1.48;;;;;;;13.73;40.52;102638.19;4898688;29;20074;-72
2022/11/11 14:10:01;;;;;;;2.75;1.25;;;;;;;13.72;40.46;102639.19;4903931;29;20059;-73
2022/11/11 14:12:51;;;;;;;3.03;1.40;;;;;;;13.70;40.61;102635.66;4900579;29;20056;-73
2022/11/11 14:15:41;;;;;;;1.92;1.15;;;;;;;13.71;40.70;102628.28;4899350;29;20051;-72
2022/11/11 14:18:45;;;;;;;2.40;1.20;;;;;;;13.70;40.34;102626.53;4901985;29;20047;-71
2022/11/11 14:21:53;;;;;;;3.28;1.45;;;;;;;13.69;39.94;102624.78;4909432;29;20141;-72
2022/11/11 14:24:46;;;;;;;3.25;1.65;;;;;;;13.68;40.63;102631.28;4898305;29;20052;-73
2022/11/11 14:27:34;;;;;;;3.95;1.92;;;;;;;13.70;40.55;102632.91;4901410;29;20130;-70
2022/11/11 14:30:36;;;;;;;2.85;1.30;;;;;;;13.74;40.46;102628.09;4905557;29;20047;-62
2022/11/11 14:33:47;;;;;;;4.95;2.25;;;;;;;13.72;40.07;102632.81;4895016;29;20075;-60